Time;durP1;ratioP1;P1;durP2;ratioP2;P2;SDS_P1;SDS_P2;PMS_P1;PMS_P2;Temp;Humidity;BMP_temperature;BMP_pressure;BME280_temperature;BME280_humidity;BME280_pressure;Samples;Min_cycle;Max_cycle;Signal;HPM_P1;HPM_P2
2021/12/08 00:00:45;;;;;;;38.25;24.85;;;3.30;96.00;;;;;;5071707;28;20036;-63
2021/12/08 00:03:13;;;;;;;38.22;24.73;;;3.30;96.40;;;;;;5072540;28;20090;-63
2021/12/08 00:05:40;;;;;;;36.47;25.15;;;3.30;96.50;;;;;;5071494;28;20024;-62
2021/12/08 00:08:08;;;;;;;39.13;25.08;;;3.30;96.90;;;;;;5072756;28;20056;-63
2021/12/08 00:13:07;;;;;;;37.55;25.08;;;3.20;97.30;;;;;;5072316;28;20115;-63
2021/12/08 00:15:44;;;;;;;37.88;26.00;;;3.20;97.60;;;;;;5076607;28;20020;-64
2021/12/08 00:18:14;;;;;;;43.65;25.63;;;3.20;97.80;;;;;;5092360;28;20028;-63
2021/12/08 00:20:43;;;;;;;41.35;26.40;;;3.20;98.00;;;;;;5091736;28;20409;-63
2021/12/08 00:23:09;;;;;;;38.70;26.00;;;3.10;97.80;;;;;;5092291;28;20077;-63
2021/12/08 00:25:37;;;;;;;42.92;27.20;;;3.10;97.70;;;;;;5091784;28;20038;-63
2021/12/08 00:28:05;;;;;;;41.13;25.50;;;3.10;97.90;;;;;;5092337;28;20138;-63
2021/12/08 00:30:33;;;;;;;42.75;26.85;;;3.10;97.40;;;;;;5091699;28;20039;-64
2021/12/08 00:32:59;;;;;;;39.33;25.77;;;3.00;97.20;;;;;;5092313;28;20028;-63
2021/12/08 00:35:27;;;;;;;38.33;25.52;;;3.00;97.80;;;;;;5092272;28;20033;-63
2021/12/08 00:37:54;;;;;;;37.47;25.88;;;3.00;98.00;;;;;;5091822;28;20028;-64
2021/12/08 00:40:21;;;;;;;40.45;27.08;;;2.90;97.30;;;;;;5092057;28;20123;-63
2021/12/08 00:42:47;;;;;;;39.10;26.15;;;2.90;97.30;;;;;;5091444;28;20052;-63
2021/12/08 00:45:15;;;;;;;42.33;26.33;;;2.80;97.60;;;;;;5092069;28;20035;-63
2021/12/08 00:47:41;;;;;;;42.88;26.00;;;2.80;97.90;;;;;;5090961;28;20051;-64
2021/12/08 00:50:09;;;;;;;42.33;26.77;;;2.80;98.00;;;;;;5092089;28;20039;-63
2021/12/08 00:52:35;;;;;;;43.83;27.63;;;2.70;98.00;;;;;;5091434;28;20028;-64
2021/12/08 00:55:01;;;;;;;43.13;28.40;;;2.70;98.10;;;;;;5092228;28;20034;-63
2021/12/08 00:57:27;;;;;;;42.60;27.20;;;2.70;98.20;;;;;;5091735;28;20052;-63
2021/12/08 00:59:52;;;;;;;41.80;26.90;;;2.70;98.10;;;;;;5091252;28;20416;-63
2021/12/08 01:02:19;;;;;;;44.97;29.38;;;2.70;98.20;;;;;;5091983;28;20373;-63
2021/12/08 01:04:44;;;;;;;44.72;28.95;;;2.60;98.40;;;;;;5091399;28;20059;-64
2021/12/08 01:07:10;;;;;;;46.28;28.95;;;2.60;98.60;;;;;;5091687;28;20052;-63
2021/12/08 01:09:36;;;;;;;48.65;29.95;;;2.60;98.70;;;;;;5090906;28;20078;-64
2021/12/08 01:12:03;;;;;;;47.80;30.58;;;2.60;98.40;;;;;;5091845;28;20028;-63
2021/12/08 01:14:31;;;;;;;48.78;30.85;;;2.50;98.30;;;;;;5091877;28;20396;-63
2021/12/08 01:16:58;;;;;;;51.72;31.45;;;2.50;98.60;;;;;;5091700;28;20053;-64
2021/12/08 01:19:24;;;;;;;47.10;30.38;;;2.40;98.80;;;;;;5091621;28;20032;-64
2021/12/08 01:21:50;;;;;;;52.58;31.88;;;2.40;98.90;;;;;;5090508;28;20106;-64
2021/12/08 01:24:16;;;;;;;54.70;32.97;;;2.30;98.80;;;;;;5088901;28;20103;-64
2021/12/08 01:26:41;;;;;;;50.08;31.30;;;2.30;98.90;;;;;;5091134;28;20035;-62
2021/12/08 01:29:08;;;;;;;54.75;32.40;;;2.30;99.20;;;;;;5092996;28;20030;-63
2021/12/08 01:31:36;;;;;;;54.05;33.08;;;2.20;99.60;;;;;;5094825;28;20059;-65
2021/12/08 01:34:03;;;;;;;51.92;31.60;;;2.20;99.90;;;;;;5095629;28;20043;-62
2021/12/08 01:36:29;;;;;;;55.15;32.65;;;2.20;99.90;;;;;;5095385;28;20063;-62
2021/12/08 01:38:54;;;;;;;50.70;31.50;;;2.20;99.90;;;;;;5094937;28;20031;-62
2021/12/08 01:41:23;;;;;;;51.00;32.90;;;2.20;99.90;;;;;;5095347;28;20035;-62
2021/12/08 01:46:33;;;;;;;52.78;32.03;;;2.10;99.90;;;;;;5095252;28;20176;-63
2021/12/08 01:49:00;;;;;;;56.65;33.92;;;2.00;99.90;;;;;;5095122;28;20032;-62
2021/12/08 01:51:26;;;;;;;55.80;32.03;;;2.00;99.90;;;;;;5095064;28;20035;-62
2021/12/08 01:53:55;;;;;;;54.20;32.00;;;2.00;99.90;;;;;;5094514;28;20102;-62
2021/12/08 01:56:24;;;;;;;54.03;33.80;;;2.00;99.90;;;;;;5095131;28;20028;-62
2021/12/08 01:58:50;;;;;;;57.22;32.47;;;1.90;99.90;;;;;;5094036;28;20031;-62
2021/12/08 02:01:20;;;;;;;53.35;33.35;;;1.90;99.90;;;;;;5095073;28;20035;-62
2021/12/08 02:03:46;;;;;;;59.80;34.38;;;1.90;99.90;;;;;;5094336;28;20020;-62
2021/12/08 02:06:13;;;;;;;60.67;34.10;;;1.90;99.90;;;;;;5094870;28;20073;-62
2021/12/08 02:08:40;;;;;;;62.97;34.25;;;1.90;99.90;;;;;;5094350;28;20126;-63
2021/12/08 02:11:07;;;;;;;60.08;33.97;;;1.80;99.90;;;;;;5086058;28;20503;-62
2021/12/08 02:13:39;;;;;;;59.60;35.30;;;1.80;99.90;;;;;;5074484;28;20025;-63
2021/12/08 02:16:08;;;;;;;64.60;36.03;;;1.80;99.90;;;;;;5074607;28;20020;-63
2021/12/08 02:18:35;;;;;;;64.35;34.97;;;1.70;99.90;;;;;;5074438;28;20032;-63
2021/12/08 02:21:19;;;;;;;63.17;36.17;;;1.70;99.90;;;;;;5073665;28;20032;-63
2021/12/08 02:23:44;;;;;;;61.72;34.55;;;1.60;99.90;;;;;;5073757;28;20147;-62
2021/12/08 02:26:10;;;;;;;57.58;35.50;;;1.60;99.90;;;;;;5074208;28;20067;-63
2021/12/08 02:28:36;;;;;;;57.92;35.20;;;1.60;99.90;;;;;;5074242;28;20505;-63
2021/12/08 02:31:06;;;;;;;59.50;36.00;;;1.60;99.90;;;;;;5073498;28;20385;-63
2021/12/08 02:47:52;;;;;;;66.30;37.45;;;1.30;99.90;;;;;;5073925;28;20094;-64
2021/12/08 02:50:39;;;;;;;66.53;37.42;;;1.30;99.90;;;;;;5073894;28;20024;-63
2021/12/08 02:53:07;;;;;;;67.40;35.85;;;1.20;99.90;;;;;;5073207;28;20042;-63
2021/12/08 02:55:33;;;;;;;68.90;38.35;;;1.30;99.90;;;;;;5073626;28;20465;-63
2021/12/08 02:58:01;;;;;;;70.70;37.13;;;1.20;99.90;;;;;;5072948;28;20033;-63
2021/12/08 03:00:29;;;;;;;70.18;37.70;;;1.20;99.90;;;;;;5073532;28;20048;-63
2021/12/08 03:02:58;;;;;;;66.68;36.42;;;1.20;99.90;;;;;;5073220;28;20027;-63
2021/12/08 03:05:25;;;;;;;70.07;38.13;;;1.20;99.90;;;;;;5073443;28;20025;-63
2021/12/08 03:07:51;;;;;;;65.78;37.45;;;1.20;99.90;;;;;;5072595;28;20123;-63
2021/12/08 03:10:23;;;;;;;69.88;38.00;;;1.20;99.90;;;;;;5073104;28;20039;-63
2021/12/08 03:12:49;;;;;;;74.13;40.13;;;1.20;99.90;;;;;;5072441;28;20021;-63
2021/12/08 03:15:16;;;;;;;69.82;39.45;;;1.10;99.90;;;;;;5073212;28;20021;-62
2021/12/08 03:17:42;;;;;;;70.82;38.28;;;1.10;99.90;;;;;;5075472;28;20040;-64
2021/12/08 03:20:14;;;;;;;68.07;37.85;;;1.00;99.90;;;;;;5073030;28;20063;-62
2021/12/08 03:22:45;;;;;;;69.80;38.40;;;1.00;99.90;;;;;;5073265;28;20389;-63
2021/12/08 03:25:14;;;;;;;76.20;39.88;;;1.00;99.90;;;;;;5073134;28;20157;-62
2021/12/08 03:27:48;;;;;;;75.75;39.40;;;1.00;99.90;;;;;;5072695;28;20534;-62
2021/12/08 03:33:03;;;;;;;76.43;38.83;;;1.00;99.90;;;;;;5052501;28;20363;-63
2021/12/08 03:35:29;;;;;;;76.57;39.10;;;1.00;99.90;;;;;;5073032;28;20511;-63
2021/12/08 03:37:55;;;;;;;78.47;39.90;;;1.00;99.90;;;;;;5072258;28;20028;-63
2021/12/08 03:40:24;;;;;;;81.38;39.60;;;1.00;99.90;;;;;;5072834;28;20502;-64
2021/12/08 03:42:56;;;;;;;68.75;39.08;;;0.90;99.90;;;;;;5072117;28;20119;-64
2021/12/08 03:45:34;;;;;;;;;;;0.90;99.90;;;;;;5073195;28;20056;-63
2021/12/08 03:48:07;;;;;;;73.68;37.72;;;0.90;99.90;;;;;;5076818;28;19955;-63
2021/12/08 03:50:40;;;;;;;79.03;39.72;;;0.80;99.90;;;;;;5092871;28;20027;-63
2021/12/08 03:53:07;;;;;;;81.60;40.65;;;0.80;99.90;;;;;;5091860;28;20110;-63
2021/12/08 03:55:33;;;;;;;80.30;40.83;;;0.80;99.90;;;;;;5092840;28;20480;-64
2021/12/08 03:57:59;;;;;;;74.82;39.28;;;0.80;99.90;;;;;;5092404;28;20030;-63
2021/12/08 04:00:29;;;;;;;80.10;40.85;;;0.80;99.90;;;;;;5092608;28;20050;-64
2021/12/08 04:03:01;;;;;;;77.63;39.15;;;0.70;99.90;;;;;;5091881;28;20376;-62
2021/12/08 04:05:44;;;;;;;80.57;40.17;;;0.70;99.90;;;;;;5092813;28;20405;-62
2021/12/08 04:08:20;;;;;;;78.00;40.33;;;0.70;99.90;;;;;;5092025;28;20028;-63
2021/12/08 04:10:49;;;;;;;82.50;40.30;;;0.70;99.90;;;;;;5092710;28;20024;-62
2021/12/08 04:13:23;;;;;;;87.75;42.85;;;0.70;99.90;;;;;;5092363;28;20024;-63
2021/12/08 04:15:49;;;;;;;81.97;40.63;;;0.70;99.90;;;;;;5090863;28;20028;-63
2021/12/08 04:18:15;;;;;;;90.60;45.00;;;0.70;99.90;;;;;;5074574;28;20358;-63
2021/12/08 04:20:51;;;;;;;85.85;42.75;;;0.60;99.90;;;;;;5072287;28;20029;-63
2021/12/08 04:23:19;;;;;;;88.38;42.70;;;0.70;99.90;;;;;;5072166;28;20024;-63
2021/12/08 04:25:48;;;;;;;81.28;41.83;;;0.70;99.90;;;;;;5072134;28;20070;-63
2021/12/08 04:28:20;;;;;;;86.43;42.90;;;0.70;99.90;;;;;;5071874;28;20031;-62
2021/12/08 04:30:53;;;;;;;83.68;41.22;;;0.70;99.90;;;;;;5071997;28;20587;-63
2021/12/08 04:33:19;;;;;;;79.43;41.65;;;0.60;99.90;;;;;;5071770;28;20520;-63
2021/12/08 04:35:48;;;;;;;87.22;42.78;;;0.60;99.90;;;;;;5072030;28;20059;-63
2021/12/08 04:38:24;;;;;;;84.68;42.60;;;0.60;99.90;;;;;;5072138;28;20059;-62
2021/12/08 04:41:05;;;;;;;87.25;42.72;;;0.60;99.90;;;;;;5071368;28;20127;-63
2021/12/08 04:44:40;;;;;;;88.28;43.83;;;0.50;99.90;;;;;;5072034;28;20024;-62
2021/12/08 04:52:23;;;;;;;79.70;42.53;;;0.40;99.90;;;;;;5071359;28;20469;-62
2021/12/08 05:08:42;;;;;;;84.30;40.33;;;0.50;99.90;;;;;;5075447;28;20034;-62
2021/12/08 05:11:13;;;;;;;82.50;39.95;;;0.60;99.90;;;;;;5075060;28;20040;-63
2021/12/08 05:13:40;;;;;;;80.50;42.08;;;0.60;99.90;;;;;;5076129;28;20021;-63
2021/12/08 05:16:07;;;;;;;77.13;39.00;;;0.60;99.90;;;;;;5075024;28;20043;-63
2021/12/08 05:18:37;;;;;;;77.53;40.30;;;0.60;99.90;;;;;;5075424;28;20035;-63
2021/12/08 05:21:15;;;;;;;81.13;41.65;;;0.60;99.90;;;;;;5074841;28;20036;-63
2021/12/08 05:23:43;;;;;;;84.57;41.53;;;0.60;99.90;;;;;;5075277;28;20036;-62
2021/12/08 05:26:13;;;;;;;84.47;40.70;;;0.60;99.90;;;;;;5078083;28;20024;-63
2021/12/08 05:28:42;;;;;;;79.25;40.65;;;0.50;99.90;;;;;;5095739;28;20082;-63
2021/12/08 05:31:14;;;;;;;78.05;40.17;;;0.50;99.90;;;;;;5094961;28;20093;-63
2021/12/08 05:33:42;;;;;;;81.70;39.33;;;0.40;99.90;;;;;;5095141;28;20064;-63
2021/12/08 05:36:09;;;;;;;74.45;38.65;;;0.40;99.90;;;;;;5094800;28;20028;-62
2021/12/08 05:38:35;;;;;;;77.85;40.70;;;0.30;99.90;;;;;;5095101;28;20031;-63
2021/12/08 05:41:07;;;;;;;77.30;38.35;;;0.30;99.90;;;;;;5094758;28;20039;-63
2021/12/08 05:43:33;;;;;;;65.45;35.60;;;0.40;99.90;;;;;;5095210;28;20054;-63
2021/12/08 05:46:00;;;;;;;67.10;36.60;;;0.30;99.90;;;;;;5094495;28;20578;-63
2021/12/08 05:48:29;;;;;;;69.28;35.85;;;0.40;99.90;;;;;;5095396;28;20095;-63
2021/12/08 05:51:07;;;;;;;65.30;36.50;;;0.40;99.90;;;;;;5094570;28;20356;-64
2021/12/08 05:53:34;;;;;;;71.22;35.50;;;0.40;99.90;;;;;;5094819;28;20027;-63
2021/12/08 05:56:00;;;;;;;62.75;34.05;;;0.30;99.90;;;;;;5088608;28;20035;-63
2021/12/08 05:58:27;;;;;;;64.57;34.28;;;0.30;99.90;;;;;;5089046;28;20036;-63
2021/12/08 06:00:55;;;;;;;62.03;34.47;;;0.30;99.90;;;;;;5086282;28;20028;-63
2021/12/08 06:03:21;;;;;;;65.45;34.58;;;0.40;99.90;;;;;;5094821;28;20028;-62
2021/12/08 06:05:49;;;;;;;60.42;32.85;;;0.40;99.90;;;;;;5086556;28;20036;-63
2021/12/08 06:08:15;;;;;;;58.88;31.38;;;0.40;99.90;;;;;;5084574;28;20024;-63
2021/12/08 06:10:42;;;;;;;55.78;31.40;;;0.40;99.90;;;;;;5084178;28;20488;-63
2021/12/08 06:13:10;;;;;;;52.67;29.85;;;0.40;99.90;;;;;;5083029;28;20024;-62
2021/12/08 06:15:38;;;;;;;57.03;32.35;;;0.50;99.90;;;;;;5087344;28;20036;-63
2021/12/08 06:18:04;;;;;;;60.00;32.42;;;0.50;99.90;;;;;;5078272;28;20094;-63
2021/12/08 06:20:30;;;;;;;55.70;31.00;;;0.40;99.90;;;;;;5094328;28;20126;-63
2021/12/08 06:22:57;;;;;;;51.78;29.08;;;0.50;99.90;;;;;;5086557;28;20024;-63
2021/12/08 06:25:25;;;;;;;46.88;27.70;;;0.50;99.90;;;;;;5074211;28;20037;-63
2021/12/08 06:27:51;;;;;;;48.22;28.30;;;0.50;99.90;;;;;;5081980;28;20085;-63
2021/12/08 06:30:21;;;;;;;53.03;28.40;;;0.50;99.90;;;;;;5073382;28;20461;-63
2021/12/08 06:32:48;;;;;;;52.13;27.25;;;0.50;99.90;;;;;;5093128;28;20024;-63
2021/12/08 06:35:22;;;;;;;47.50;28.42;;;0.60;99.90;;;;;;5092396;28;20525;-64
2021/12/08 06:37:50;;;;;;;49.10;29.13;;;0.60;99.90;;;;;;5084207;28;20477;-64
2021/12/08 06:40:26;;;;;;;48.47;28.58;;;0.60;99.90;;;;;;5078247;28;20081;-62
2021/12/08 06:42:58;;;;;;;47.15;27.27;;;0.50;99.90;;;;;;5074226;28;20510;-62
2021/12/08 06:45:29;;;;;;;43.60;26.02;;;0.60;99.90;;;;;;5072465;28;20469;-62
2021/12/08 06:48:03;;;;;;;48.30;28.30;;;0.60;99.90;;;;;;5077446;28;20028;-63
2021/12/08 06:50:33;;;;;;;49.35;28.00;;;0.60;99.90;;;;;;5082928;28;20094;-62
2021/12/08 06:52:59;;;;;;;47.47;28.23;;;0.60;99.90;;;;;;5081365;28;20321;-64
2021/12/08 06:55:31;;;;;;;47.97;27.27;;;0.70;99.90;;;;;;5087241;28;20468;-63
2021/12/08 06:58:02;;;;;;;47.10;27.35;;;0.80;99.90;;;;;;5084803;28;20024;-62
2021/12/08 07:00:46;;;;;;;42.97;26.23;;;0.80;99.90;;;;;;5093848;28;20040;-62
2021/12/08 07:09:23;;;;;;;39.90;23.90;;;0.90;99.90;;;;;;5058366;28;20075;-63
2021/12/08 07:11:53;;;;;;;42.05;25.42;;;0.90;99.90;;;;;;5093250;28;20090;-63
2021/12/08 07:14:19;;;;;;;39.92;23.75;;;0.90;99.90;;;;;;5092949;28;20384;-63
2021/12/08 07:16:49;;;;;;;41.35;24.55;;;0.90;99.90;;;;;;5093559;28;20082;-63
2021/12/08 07:19:27;;;;;;;39.67;24.70;;;0.90;99.90;;;;;;5092639;28;20058;-63
2021/12/08 07:21:56;;;;;;;41.50;25.02;;;0.90;99.90;;;;;;5091682;28;20036;-63
2021/12/08 07:24:31;;;;;;;47.25;25.77;;;0.90;99.90;;;;;;5073534;28;20350;-63
2021/12/08 07:27:02;;;;;;;42.42;24.75;;;0.90;99.90;;;;;;5074726;28;20020;-63
2021/12/08 07:29:31;;;;;;;44.03;25.08;;;0.90;99.90;;;;;;5083378;28;20060;-63
2021/12/08 07:32:18;;;;;;;40.92;24.95;;;0.90;99.90;;;;;;5083588;28;20024;-63
2021/12/08 07:35:03;;;;;;;40.88;23.50;;;0.90;99.90;;;;;;5073506;28;20033;-64
2021/12/08 07:37:32;;;;;;;44.80;25.77;;;0.90;99.90;;;;;;5077361;28;20091;-63
2021/12/08 07:40:12;;;;;;;42.10;24.52;;;0.90;99.90;;;;;;5084737;28;20048;-63
2021/12/08 07:42:45;;;;;;;42.73;24.93;;;0.90;99.90;;;;;;5093502;28;20088;-63
2021/12/08 07:45:17;;;;;;;39.10;22.33;;;0.90;99.90;;;;;;5084743;28;20248;-63
2021/12/08 07:47:44;;;;;;;38.67;23.27;;;1.00;99.90;;;;;;5083689;28;20052;-63
2021/12/08 07:50:31;;;;;;;40.72;24.63;;;0.90;99.90;;;;;;5072079;28;20033;-63
2021/12/08 07:52:57;;;;;;;36.15;24.15;;;1.00;99.90;;;;;;5072275;28;20024;-63
2021/12/08 07:55:36;;;;;;;37.70;22.70;;;1.00;99.90;;;;;;5071751;28;20024;-63
2021/12/08 07:58:05;;;;;;;36.15;22.95;;;1.00;99.90;;;;;;5072427;28;20021;-62
2021/12/08 08:00:40;;;;;;;35.50;22.92;;;1.10;99.90;;;;;;5077585;28;20037;-64
2021/12/08 08:03:07;;;;;;;37.42;22.90;;;1.10;99.90;;;;;;5079293;28;20107;-63
2021/12/08 08:05:34;;;;;;;35.65;21.70;;;1.10;99.90;;;;;;5084945;28;20028;-62
2021/12/08 08:08:05;;;;;;;36.40;22.02;;;1.10;99.90;;;;;;5079311;28;20052;-63
2021/12/08 08:10:32;;;;;;;35.17;22.67;;;1.20;99.90;;;;;;5088537;28;20028;-64
2021/12/08 08:13:01;;;;;;;33.47;22.10;;;1.20;99.90;;;;;;5080958;28;20024;-63
2021/12/08 08:15:32;;;;;;;34.78;22.50;;;1.20;99.90;;;;;;5082318;28;20020;-63
2021/12/08 08:18:05;;;;;;;35.95;22.55;;;1.30;99.90;;;;;;5090275;28;20035;-63
2021/12/08 08:20:35;;;;;;;36.05;21.77;;;1.40;99.90;;;;;;5076518;28;20531;-63
2021/12/08 08:23:02;;;;;;;36.55;21.83;;;1.40;99.90;;;;;;5081956;28;20054;-64
2021/12/08 08:25:34;;;;;;;34.33;21.67;;;1.40;99.90;;;;;;5082680;28;20020;-63
2021/12/08 08:28:00;;;;;;;35.90;22.25;;;1.50;99.90;;;;;;5089502;28;20047;-63
2021/12/08 08:30:31;;;;;;;34.92;22.25;;;1.50;99.90;;;;;;5091658;28;20036;-63
2021/12/08 08:32:57;;;;;;;;;;;1.50;99.90;;;;;;5092360;28;20069;-63
2021/12/08 08:35:52;;;;;;;35.85;20.75;;;1.60;99.90;;;;;;5090342;28;20280;-63
2021/12/08 08:38:56;;;;;;;32.80;21.30;;;1.50;99.90;;;;;;5073766;28;20092;-63
2021/12/08 08:41:33;;;;;;;37.97;22.83;;;1.50;99.90;;;;;;5091529;28;20426;-63
2021/12/08 08:44:06;;;;;;;36.17;23.10;;;1.60;99.90;;;;;;5091904;28;20103;-64
2021/12/08 08:46:36;;;;;;;35.83;23.15;;;1.60;99.90;;;;;;5091484;28;20508;-66
2021/12/08 08:49:07;;;;;;;35.05;22.30;;;1.50;99.90;;;;;;5092087;28;20330;-63
2021/12/08 08:51:38;;;;;;;35.92;22.92;;;1.50;99.90;;;;;;5092177;28;20483;-63
2021/12/08 08:54:20;;;;;;;37.95;23.77;;;1.50;99.90;;;;;;5091667;28;20469;-63
2021/12/08 08:56:53;;;;;;;36.08;22.95;;;1.50;99.90;;;;;;5089860;28;20104;-63
2021/12/08 08:59:25;;;;;;;41.35;23.13;;;1.50;99.90;;;;;;5071110;28;20520;-63
2021/12/08 09:01:54;;;;;;;36.63;22.92;;;1.50;99.90;;;;;;5087113;28;20538;-62
2021/12/08 09:04:33;;;;;;;37.00;23.60;;;1.50;99.90;;;;;;5091284;28;20035;-64
2021/12/08 09:07:03;;;;;;;37.53;22.42;;;1.50;99.90;;;;;;5091899;28;20020;-62
2021/12/08 09:09:34;;;;;;;37.30;23.40;;;1.50;99.90;;;;;;5091071;28;20032;-63
2021/12/08 09:12:18;;;;;;;35.83;23.80;;;1.40;99.90;;;;;;5091591;28;20039;-62
2021/12/08 09:14:58;;;;;;;33.30;22.13;;;1.40;99.90;;;;;;5091824;28;20032;-62
2021/12/08 09:17:28;;;;;;;37.55;22.05;;;1.40;99.90;;;;;;5091177;28;20020;-62
2021/12/08 09:20:13;;;;;;;35.80;22.00;;;1.50;99.90;;;;;;5091616;28;20028;-62
2021/12/08 09:23:01;;;;;;;36.53;22.27;;;1.50;99.90;;;;;;5083928;28;20039;-65
2021/12/08 09:25:42;;;;;;;35.28;21.55;;;1.50;99.90;;;;;;5090482;28;20119;-64
2021/12/08 09:28:22;;;;;;;38.33;23.42;;;1.50;99.90;;;;;;5091674;28;20035;-63
2021/12/08 09:31:05;;;;;;;34.63;22.67;;;1.50;99.90;;;;;;5091414;28;20036;-64
2021/12/08 09:33:39;;;;;;;37.20;22.15;;;1.60;99.90;;;;;;5079029;28;20480;-64
2021/12/08 09:36:10;;;;;;;34.90;20.17;;;1.60;99.90;;;;;;5091671;28;20101;-63
2021/12/08 09:38:47;;;;;;;34.03;20.67;;;1.70;99.90;;;;;;5091710;28;20020;-64
2021/12/08 09:41:24;;;;;;;32.75;20.40;;;1.70;99.90;;;;;;5090534;28;20035;-61
2021/12/08 09:43:58;;;;;;;32.95;20.13;;;1.80;99.90;;;;;;5091046;28;20488;-61
2021/12/08 09:46:32;;;;;;;31.63;19.75;;;1.80;99.70;;;;;;5090715;28;20055;-61
2021/12/08 09:48:58;;;;;;;31.25;19.15;;;1.90;99.80;;;;;;5091362;28;20024;-62
2021/12/08 09:51:25;;;;;;;29.38;19.20;;;2.00;99.60;;;;;;5093529;28;20095;-62
2021/12/08 09:53:52;;;;;;;33.13;19.33;;;2.00;99.40;;;;;;5094812;28;20035;-62
2021/12/08 09:56:19;;;;;;;29.48;19.70;;;2.10;99.30;;;;;;5094082;28;20479;-61
2021/12/08 09:58:45;;;;;;;33.25;20.95;;;2.20;98.80;;;;;;5074665;28;20098;-61
2021/12/08 10:01:16;;;;;;;27.50;18.95;;;2.30;98.10;;;;;;5074519;28;20067;-61
2021/12/08 10:03:43;;;;;;;26.50;17.95;;;2.40;97.90;;;;;;5074495;28;20044;-62
2021/12/08 10:06:12;;;;;;;31.45;19.13;;;2.60;97.20;;;;;;5082290;28;20418;-62
2021/12/08 10:08:38;;;;;;;28.80;18.05;;;2.70;96.20;;;;;;5086595;28;20043;-63
2021/12/08 10:11:03;;;;;;;28.50;18.35;;;2.80;95.70;;;;;;5079764;28;20032;-67
2021/12/08 10:13:29;;;;;;;27.42;17.38;;;2.90;95.60;;;;;;5073688;28;20035;-63
2021/12/08 10:15:55;;;;;;;29.33;18.10;;;3.00;94.90;;;;;;5074279;28;20024;-68
2021/12/08 10:18:21;;;;;;;27.48;18.27;;;3.10;94.40;;;;;;5072478;28;20028;-64
2021/12/08 10:20:51;;;;;;;25.42;17.25;;;3.20;93.80;;;;;;5074169;28;20028;-61
2021/12/08 10:23:23;;;;;;;26.60;17.83;;;3.30;93.60;;;;;;5086540;28;20024;-63
2021/12/08 10:25:56;;;;;;;25.67;17.98;;;3.30;93.20;;;;;;5091176;28;20062;-63
2021/12/08 10:28:31;;;;;;;26.45;17.60;;;3.40;92.80;;;;;;5082247;28;20062;-62
2021/12/08 10:31:25;;;;;;;24.77;16.80;;;3.50;92.80;;;;;;5082186;28;20035;-62
2021/12/08 10:36:50;;;;;;;22.60;16.40;;;3.70;92.10;;;;;;5082511;28;20465;-62
2021/12/08 10:39:28;;;;;;;23.85;16.35;;;3.80;91.50;;;;;;5082898;28;20021;-62
2021/12/08 10:41:56;;;;;;;25.75;17.05;;;4.00;91.50;;;;;;5083082;28;20031;-62
2021/12/08 10:44:25;;;;;;;21.10;14.55;;;4.10;91.50;;;;;;5081228;28;20020;-62
2021/12/08 10:46:57;;;;;;;23.02;15.35;;;4.30;90.30;;;;;;5082127;28;20127;-62
2021/12/08 10:54:45;;;;;;;21.63;13.32;;;4.60;87.90;;;;;;5093587;28;20384;-63
2021/12/08 10:57:31;;;;;;;18.63;13.60;;;4.70;87.40;;;;;;5093456;28;20035;-63
2021/12/08 11:00:17;;;;;;;19.23;13.77;;;4.70;85.30;;;;;;5092836;28;20456;-63
2021/12/08 11:02:48;;;;;;;18.80;13.07;;;4.70;84.20;;;;;;5091636;28;20087;-63
2021/12/08 11:05:40;;;;;;;;;;;4.70;85.00;;;;;;5093106;28;20031;-62
2021/12/08 11:08:09;;;;;;;17.88;12.18;;;4.80;84.30;;;;;;5061099;28;19911;-62
2021/12/08 11:10:42;;;;;;;16.65;12.25;;;4.90;83.80;;;;;;5080825;28;20358;-62
2021/12/08 11:13:09;;;;;;;20.02;12.00;;;5.00;83.60;;;;;;5081106;28;20105;-62
2021/12/08 11:15:35;;;;;;;16.15;12.35;;;5.10;81.80;;;;;;5076158;28;20124;-62
2021/12/08 11:18:18;;;;;;;17.17;11.85;;;5.20;81.40;;;;;;5089872;28;20032;-62
2021/12/08 11:23:51;;;;;;;15.85;11.25;;;5.20;80.40;;;;;;5086434;28;20034;-63
2021/12/08 11:26:29;;;;;;;15.90;10.85;;;5.30;80.50;;;;;;5092465;28;20024;-63
2021/12/08 11:29:06;;;;;;;16.60;12.13;;;5.30;79.00;;;;;;5093105;28;20020;-63
2021/12/08 11:31:35;;;;;;;14.38;10.07;;;5.30;79.20;;;;;;5092455;28;20055;-64
2021/12/08 11:34:05;;;;;;;15.45;10.98;;;5.20;78.20;;;;;;5092753;28;20395;-64
2021/12/08 11:36:41;;;;;;;14.00;10.25;;;5.20;77.50;;;;;;5091058;28;20443;-62
2021/12/08 11:39:18;;;;;;;14.25;9.80;;;5.10;78.10;;;;;;5092574;28;20149;-61
2021/12/08 11:41:47;;;;;;;12.98;10.05;;;4.90;77.50;;;;;;5089366;28;20452;-62
2021/12/08 11:44:21;;;;;;;14.88;10.45;;;4.90;78.40;;;;;;5091281;28;20036;-61
2021/12/08 11:46:51;;;;;;;12.02;9.35;;;4.80;79.10;;;;;;5090682;28;20044;-62
2021/12/08 11:49:18;;;;;;;16.38;10.85;;;4.70;79.90;;;;;;5090504;28;20039;-61
2021/12/08 11:51:43;;;;;;;13.43;9.55;;;4.60;80.50;;;;;;5090622;28;20024;-62
2021/12/08 11:54:59;;;;;;;13.35;9.82;;;4.60;80.80;;;;;;5090453;28;20024;-62
2021/12/08 11:57:40;;;;;;;13.15;9.70;;;4.40;80.80;;;;;;5074602;28;20208;-62
2021/12/08 12:00:19;;;;;;;13.70;9.68;;;4.40;81.20;;;;;;5091202;28;20064;-62
2021/12/08 12:02:52;;;;;;;14.73;9.70;;;4.30;81.70;;;;;;5092047;28;20031;-62
2021/12/08 12:05:25;;;;;;;14.70;9.15;;;4.30;82.30;;;;;;5091654;28;20024;-61
2021/12/08 12:07:51;;;;;;;13.55;9.65;;;4.20;82.90;;;;;;5091847;28;20115;-62
2021/12/08 12:10:21;;;;;;;13.65;9.00;;;4.30;83.20;;;;;;5092122;28;20035;-61
2021/12/08 12:12:47;;;;;;;15.52;9.57;;;4.30;83.20;;;;;;5091444;28;20020;-61
2021/12/08 12:15:17;;;;;;;13.00;8.95;;;4.40;82.70;;;;;;5092299;28;20024;-62
2021/12/08 12:17:44;;;;;;;13.25;9.30;;;4.40;83.50;;;;;;5092020;28;20038;-63
2021/12/08 12:20:38;;;;;;;14.82;9.20;;;4.40;82.90;;;;;;5090771;28;20542;-62
2021/12/08 12:23:31;;;;;;;12.80;8.85;;;4.30;83.10;;;;;;5073979;28;20040;-62
2021/12/08 12:26:15;;;;;;;11.32;8.40;;;4.30;83.00;;;;;;5072043;28;20099;-62
2021/12/08 12:29:01;;;;;;;11.40;8.43;;;4.30;83.80;;;;;;5071716;28;20304;-62
2021/12/08 12:31:49;;;;;;;12.80;8.98;;;4.30;83.50;;;;;;5071404;28;20033;-62
2021/12/08 12:34:33;;;;;;;11.90;8.68;;;4.30;83.90;;;;;;5051299;28;20040;-62
2021/12/08 12:37:22;;;;;;;13.73;8.52;;;4.30;84.00;;;;;;5071928;28;20082;-62
2021/12/08 12:39:54;;;;;;;11.65;8.57;;;4.20;84.20;;;;;;5071412;28;20037;-62
2021/12/08 12:42:21;;;;;;;13.60;8.70;;;4.20;84.60;;;;;;5072046;28;20035;-62
2021/12/08 12:45:00;;;;;;;12.48;8.13;;;4.20;84.50;;;;;;5071901;28;20025;-61
2021/12/08 12:47:28;;;;;;;12.18;9.20;;;4.20;84.60;;;;;;5071214;28;20048;-62
2021/12/08 12:50:00;;;;;;;11.75;8.23;;;4.20;84.60;;;;;;5071803;28;20037;-62
2021/12/08 12:52:36;;;;;;;11.93;7.88;;;4.20;84.60;;;;;;5070797;28;20424;-62
2021/12/08 12:55:18;;;;;;;10.63;7.38;;;4.20;84.80;;;;;;5071670;28;20113;-62
2021/12/08 12:58:05;;;;;;;11.50;8.05;;;4.20;84.90;;;;;;5071129;28;20035;-62
2021/12/08 13:00:37;;;;;;;11.13;7.18;;;4.20;84.70;;;;;;5070764;28;20050;-62
2021/12/08 13:03:03;;;;;;;14.82;8.23;;;4.10;84.90;;;;;;5071522;28;20021;-62
2021/12/08 13:05:50;;;;;;;10.65;7.43;;;4.20;85.70;;;;;;5070897;28;20088;-62
2021/12/08 13:08:39;;;;;;;13.82;7.55;;;4.20;84.10;;;;;;5071595;28;20017;-62
2021/12/08 13:11:41;;;;;;;9.88;7.30;;;4.20;83.70;;;;;;5074248;28;20060;-62
2021/12/08 13:14:23;;;;;;;11.00;7.10;;;4.20;83.30;;;;;;5063928;28;20504;-62
2021/12/08 13:17:17;;;;;;;9.75;6.97;;;4.20;83.10;;;;;;5071121;28;20031;-61
2021/12/08 13:19:42;;;;;;;10.55;6.93;;;4.20;83.10;;;;;;5070680;28;20047;-62
2021/12/08 13:22:44;;;;;;;13.15;6.88;;;4.20;83.30;;;;;;5071449;28;20111;-63
2021/12/08 13:25:31;;;;;;;;;;;4.20;83.40;;;;;;5073248;28;20079;-63
2021/12/08 13:28:18;;;;;;;11.52;7.40;;;4.20;83.10;;;;;;5074603;28;20254;-62
2021/12/08 13:30:53;;;;;;;10.27;6.93;;;4.20;83.10;;;;;;5071831;28;20484;-63
2021/12/08 13:33:50;;;;;;;9.30;6.53;;;4.20;83.50;;;;;;5075026;28;20476;-62
2021/12/08 13:36:31;;;;;;;11.82;7.22;;;4.20;83.40;;;;;;5075013;28;20354;-62
2021/12/08 13:38:56;;;;;;;8.03;6.37;;;4.20;83.60;;;;;;5075163;28;20020;-62
2021/12/08 13:41:24;;;;;;;9.73;6.70;;;4.20;83.00;;;;;;5074913;28;20119;-63
2021/12/08 13:43:50;;;;;;;11.15;6.82;;;4.20;83.10;;;;;;5074135;28;20025;-63
2021/12/08 13:46:39;;;;;;;9.98;6.68;;;4.20;82.90;;;;;;5074447;28;20060;-62
2021/12/08 13:49:26;;;;;;;10.18;6.70;;;4.20;82.60;;;;;;5074864;28;20021;-62
2021/12/08 13:52:17;;;;;;;9.88;6.75;;;4.20;82.90;;;;;;5074719;28;20024;-63
2021/12/08 13:54:50;;;;;;;12.32;7.53;;;4.10;83.20;;;;;;5074202;28;20056;-62
2021/12/08 13:57:32;;;;;;;11.80;6.65;;;4.10;83.40;;;;;;5074860;28;20357;-62
2021/12/08 14:00:08;;;;;;;10.60;6.47;;;4.20;83.10;;;;;;5074354;28;20361;-62
2021/12/08 14:02:36;;;;;;;12.30;6.45;;;4.10;83.40;;;;;;5074150;28;20094;-62
2021/12/08 14:05:11;;;;;;;9.90;7.10;;;4.20;83.50;;;;;;5074309;28;20028;-61